ISR565 LLBG-LGAV
Flight info
| Callsign | ISR565 |
|---|---|
| Flight time | 1h 42m |
| Altitude | 38000 |
| Route | SUVAS N128 OTHON DCT USINI UL995 VARIX |
| Aircraft | A320/M-SDE2FGIJ1LORVWY/SB1 |
Departure
| Time | 2026-05-04 08:10 |
|---|---|
| Airport | Ben Gurion International Airport (LLBG) |
Arrival
| Time | 2026-05-04 09:53 |
|---|---|
| Airport | Athens Eleftherios Venizelos International Airport (LGAV) |
| Time | Latitude | Longitude | Altitude | Speed | Heading |
|---|---|---|---|---|---|
| 2026-05-04 07:54 | 32.00213 | 34.87460 | 119 ft | 0 kts | 260° |
| 2026-05-04 07:56 | 32.00213 | 34.87461 | 119 ft | 0 kts | 260° |
| 2026-05-04 08:02 | 32.00213 | 34.87462 | 120 ft | 2 kts | 260° |
| 2026-05-04 08:02 | 32.00218 | 34.87491 | 117 ft | 4 kts | 258° |
| 2026-05-04 08:02 | 32.00225 | 34.87521 | 116 ft | 4 kts | 248° |
| 2026-05-04 08:03 | 32.00232 | 34.87540 | 117 ft | 4 kts | 282° |
| 2026-05-04 08:03 | 32.00222 | 34.87564 | 116 ft | 4 kts | 298° |
| 2026-05-04 08:03 | 32.00209 | 34.87592 | 116 ft | 4 kts | 307° |
| 2026-05-04 08:03 | 32.00191 | 34.87611 | 116 ft | 4 kts | 333° |
| 2026-05-04 08:04 | 32.00167 | 34.87617 | 120 ft | 4 kts | 22° |
| 2026-05-04 08:04 | 32.00146 | 34.87604 | 119 ft | 7 kts | 30° |
| 2026-05-04 08:04 | 32.00123 | 34.87588 | 117 ft | 7 kts | 29° |
| 2026-05-04 08:04 | 32.00105 | 34.87576 | 119 ft | 0 kts | 31° |
| 2026-05-04 08:06 | 32.00126 | 34.87591 | 116 ft | 15 kts | 31° |
| 2026-05-04 08:06 | 32.00237 | 34.87669 | 119 ft | 20 kts | 32° |
| 2026-05-04 08:06 | 32.00396 | 34.87782 | 120 ft | 32 kts | 31° |
| 2026-05-04 08:08 | 32.01538 | 34.89116 | 120 ft | 16 kts | 74° |
| 2026-05-04 08:08 | 32.01629 | 34.89155 | 118 ft | 17 kts | 349° |
| 2026-05-04 08:10 | 32.00803 | 34.83755 | 2371 ft | 142 kts | 255° |
| 2026-05-04 08:11 | 32.00573 | 34.82631 | 3047 ft | 141 kts | 253° |
| 2026-05-04 08:11 | 32.00071 | 34.80193 | 3837 ft | 173 kts | 255° |
| 2026-05-04 08:11 | 31.99772 | 34.78734 | 4192 ft | 193 kts | 255° |
| 2026-05-04 08:12 | 31.99441 | 34.77109 | 4608 ft | 216 kts | 255° |
| 2026-05-04 08:12 | 31.99168 | 34.75271 | 5147 ft | 240 kts | 270° |
| 2026-05-04 08:12 | 31.99589 | 34.73349 | 5997 ft | 251 kts | 287° |
| 2026-05-04 08:12 | 32.00200 | 34.71434 | 7037 ft | 251 kts | 287° |
| 2026-05-04 08:13 | 32.00793 | 34.69479 | 7896 ft | 254 kts | 284° |
| 2026-05-04 08:13 | 32.01296 | 34.67480 | 8867 ft | 255 kts | 283° |
| 2026-05-04 08:13 | 32.01771 | 34.65453 | 9811 ft | 258 kts | 282° |
| 2026-05-04 08:13 | 32.02246 | 34.63379 | 10419 ft | 273 kts | 282° |
| 2026-05-04 08:14 | 32.02757 | 34.61128 | 10701 ft | 296 kts | 282° |
| 2026-05-04 08:14 | 32.03311 | 34.58691 | 10892 ft | 319 kts | 282° |
| 2026-05-04 08:14 | 32.03910 | 34.56074 | 11031 ft | 342 kts | 283° |
| 2026-05-04 08:16 | 32.08464 | 34.36387 | 15892 ft | 361 kts | 281° |
| 2026-05-04 08:16 | 32.09122 | 34.33526 | 16554 ft | 362 kts | 281° |
| 2026-05-04 08:16 | 32.09780 | 34.30658 | 17207 ft | 363 kts | 280° |
| 2026-05-04 08:17 | 32.10431 | 34.27821 | 17834 ft | 364 kts | 280° |
| 2026-05-04 08:17 | 32.11092 | 34.24931 | 18438 ft | 365 kts | 279° |
| 2026-05-04 08:17 | 32.11756 | 34.22032 | 18959 ft | 367 kts | 279° |
| 2026-05-04 08:17 | 32.12426 | 34.19115 | 19479 ft | 369 kts | 280° |
| 2026-05-04 08:19 | 32.17571 | 33.98385 | 22451 ft | 394 kts | 291° |
| 2026-05-04 08:19 | 32.19105 | 33.95652 | 22824 ft | 403 kts | 297° |
| 2026-05-04 08:20 | 32.20743 | 33.92964 | 23224 ft | 404 kts | 298° |
| 2026-05-04 08:20 | 32.22383 | 33.90261 | 23589 ft | 405 kts | 297° |
| 2026-05-04 08:20 | 32.24022 | 33.87544 | 23873 ft | 407 kts | 297° |
| 2026-05-04 08:20 | 32.25663 | 33.84813 | 24163 ft | 409 kts | 297° |
| 2026-05-04 08:21 | 32.27308 | 33.82069 | 24496 ft | 410 kts | 297° |
| 2026-05-04 08:21 | 32.28958 | 33.79319 | 24782 ft | 411 kts | 297° |
| 2026-05-04 08:21 | 32.30591 | 33.76600 | 25039 ft | 412 kts | 297° |
| 2026-05-04 08:21 | 32.32251 | 33.73837 | 25293 ft | 413 kts | 297° |
| 2026-05-04 08:22 | 32.33916 | 33.71063 | 25507 ft | 414 kts | 297° |
| 2026-05-04 08:22 | 32.35582 | 33.68283 | 25742 ft | 415 kts | 297° |
| 2026-05-04 08:24 | 32.47168 | 33.48911 | 27713 ft | 409 kts | 297° |
| 2026-05-04 08:24 | 32.48808 | 33.46163 | 28032 ft | 408 kts | 297° |
| 2026-05-04 08:24 | 32.50443 | 33.43418 | 28363 ft | 407 kts | 297° |
| 2026-05-04 08:24 | 32.52072 | 33.40680 | 28695 ft | 406 kts | 296° |
| 2026-05-04 08:25 | 32.53697 | 33.37946 | 29043 ft | 405 kts | 296° |
| 2026-05-04 08:25 | 32.55316 | 33.35217 | 29393 ft | 404 kts | 296° |
| 2026-05-04 08:25 | 32.56912 | 33.32531 | 29751 ft | 403 kts | 296° |
| 2026-05-04 08:25 | 32.58522 | 33.29817 | 30116 ft | 402 kts | 296° |
| 2026-05-04 08:26 | 32.60124 | 33.27105 | 30446 ft | 401 kts | 296° |
| 2026-05-04 08:27 | 32.71177 | 33.08419 | 32814 ft | 391 kts | 296° |
| 2026-05-04 08:28 | 32.72738 | 33.05775 | 33198 ft | 391 kts | 296° |
| 2026-05-04 08:28 | 32.74301 | 33.03122 | 33461 ft | 392 kts | 296° |
| 2026-05-04 08:28 | 32.75863 | 33.00463 | 33774 ft | 392 kts | 296° |
| 2026-05-04 08:28 | 32.77422 | 32.97807 | 34093 ft | 392 kts | 297° |
| 2026-05-04 08:29 | 32.78981 | 32.95152 | 34368 ft | 392 kts | 297° |
| 2026-05-04 08:29 | 32.80540 | 32.92494 | 34638 ft | 392 kts | 297° |
| 2026-05-04 08:29 | 32.82104 | 32.89830 | 34884 ft | 393 kts | 297° |
| 2026-05-04 08:31 | 32.93106 | 32.71040 | 36621 ft | 399 kts | 297° |
| 2026-05-04 08:33 | 33.04238 | 32.51922 | 37987 ft | 406 kts | 297° |
| 2026-05-04 08:33 | 33.05848 | 32.49153 | 38006 ft | 407 kts | 297° |
| 2026-05-04 08:35 | 33.18699 | 32.26958 | 38023 ft | 409 kts | 298° |
| 2026-05-04 08:35 | 33.21921 | 32.21345 | 38013 ft | 410 kts | 298° |
| 2026-05-04 08:37 | 33.33243 | 32.01663 | 38028 ft | 412 kts | 298° |
| 2026-05-04 08:38 | 33.36483 | 31.95999 | 38015 ft | 412 kts | 298° |
| 2026-05-04 08:38 | 33.39699 | 31.90373 | 38010 ft | 412 kts | 298° |
| 2026-05-04 08:40 | 33.52593 | 31.67722 | 38006 ft | 412 kts | 298° |
| 2026-05-04 08:41 | 33.55815 | 31.62048 | 37994 ft | 412 kts | 298° |
| 2026-05-04 08:41 | 33.59031 | 31.56370 | 37993 ft | 411 kts | 298° |
| 2026-05-04 08:42 | 33.62244 | 31.50689 | 37995 ft | 411 kts | 299° |
| 2026-05-04 08:42 | 33.65446 | 31.45029 | 37969 ft | 413 kts | 299° |
| 2026-05-04 08:43 | 33.68679 | 31.39307 | 37965 ft | 415 kts | 299° |
| 2026-05-04 08:43 | 33.71910 | 31.33561 | 37962 ft | 416 kts | 299° |
| 2026-05-04 08:44 | 33.75149 | 31.27803 | 37978 ft | 417 kts | 299° |
| 2026-05-04 08:46 | 33.88069 | 31.04735 | 37995 ft | 416 kts | 299° |
| 2026-05-04 08:46 | 33.91292 | 30.98955 | 37989 ft | 416 kts | 299° |
| 2026-05-04 08:47 | 33.94488 | 30.93211 | 37999 ft | 416 kts | 300° |
| 2026-05-04 08:47 | 33.97704 | 30.87427 | 37992 ft | 415 kts | 300° |
| 2026-05-04 08:48 | 34.00911 | 30.81641 | 37988 ft | 415 kts | 300° |
| 2026-05-04 08:48 | 34.04111 | 30.75850 | 37992 ft | 415 kts | 300° |
| 2026-05-04 08:49 | 34.07289 | 30.70097 | 37981 ft | 415 kts | 300° |
| 2026-05-04 08:50 | 34.18473 | 30.49837 | 37974 ft | 416 kts | 300° |
| 2026-05-04 08:51 | 34.21665 | 30.44015 | 37977 ft | 416 kts | 300° |
| 2026-05-04 08:51 | 34.24859 | 30.38182 | 37982 ft | 416 kts | 300° |
| 2026-05-04 08:52 | 34.28050 | 30.32358 | 37977 ft | 415 kts | 300° |
| 2026-05-04 08:52 | 34.31210 | 30.26570 | 37974 ft | 415 kts | 300° |
| 2026-05-04 08:54 | 34.43910 | 30.03235 | 37977 ft | 415 kts | 300° |
| 2026-05-04 08:55 | 34.47456 | 29.97771 | 37973 ft | 419 kts | 310° |
| 2026-05-04 08:55 | 34.51536 | 29.92727 | 37970 ft | 419 kts | 310° |
| 2026-05-04 09:01 | 34.94115 | 29.39470 | 37985 ft | 421 kts | 311° |
| 2026-05-04 09:01 | 34.98157 | 29.34373 | 37975 ft | 421 kts | 310° |
| 2026-05-04 09:02 | 35.02231 | 29.29231 | 37976 ft | 422 kts | 310° |
| 2026-05-04 09:02 | 35.06305 | 29.24081 | 37987 ft | 422 kts | 311° |
| 2026-05-04 09:03 | 35.10374 | 29.18922 | 37987 ft | 422 kts | 311° |
| 2026-05-04 09:03 | 35.14438 | 29.13755 | 37984 ft | 421 kts | 311° |
| 2026-05-04 09:04 | 35.18473 | 29.08627 | 38023 ft | 421 kts | 311° |
| 2026-05-04 09:04 | 35.22539 | 29.03452 | 38002 ft | 423 kts | 311° |
| 2026-05-04 09:05 | 35.26616 | 28.98257 | 37989 ft | 423 kts | 311° |
| 2026-05-04 09:05 | 35.30695 | 28.93059 | 37985 ft | 423 kts | 311° |
| 2026-05-04 09:06 | 35.34741 | 28.87886 | 37998 ft | 423 kts | 311° |
| 2026-05-04 09:08 | 35.50975 | 28.67036 | 38003 ft | 423 kts | 311° |
| 2026-05-04 09:08 | 35.55041 | 28.61800 | 38000 ft | 425 kts | 311° |
| 2026-05-04 09:09 | 35.59118 | 28.56537 | 37993 ft | 426 kts | 311° |
| 2026-05-04 09:09 | 35.63199 | 28.51250 | 37997 ft | 427 kts | 311° |
| 2026-05-04 09:10 | 35.67284 | 28.45944 | 37998 ft | 427 kts | 311° |
| 2026-05-04 09:10 | 35.71350 | 28.40668 | 38011 ft | 428 kts | 311° |
| 2026-05-04 09:11 | 35.75450 | 28.35356 | 38011 ft | 428 kts | 311° |
| 2026-05-04 09:11 | 35.79534 | 28.30042 | 38037 ft | 427 kts | 311° |
| 2026-05-04 09:12 | 35.83609 | 28.24735 | 38029 ft | 426 kts | 311° |
| 2026-05-04 09:14 | 35.99875 | 28.03443 | 38023 ft | 428 kts | 312° |
| 2026-05-04 09:14 | 36.03924 | 27.98128 | 38028 ft | 427 kts | 312° |
| 2026-05-04 09:15 | 36.07993 | 27.92773 | 38028 ft | 428 kts | 312° |
| 2026-05-04 09:15 | 36.12061 | 27.87404 | 38029 ft | 428 kts | 312° |
| 2026-05-04 09:17 | 36.30371 | 27.63161 | 38038 ft | 430 kts | 312° |
| 2026-05-04 09:18 | 36.34455 | 27.57731 | 38040 ft | 431 kts | 312° |
| 2026-05-04 09:18 | 36.38535 | 27.52292 | 38042 ft | 431 kts | 312° |
| 2026-05-04 09:19 | 36.42591 | 27.46883 | 38050 ft | 431 kts | 312° |
| 2026-05-04 09:19 | 36.46669 | 27.41435 | 38053 ft | 431 kts | 312° |
| 2026-05-04 09:20 | 36.50749 | 27.35977 | 38076 ft | 431 kts | 313° |
| 2026-05-04 09:20 | 36.54827 | 27.30511 | 38077 ft | 431 kts | 312° |
| 2026-05-04 09:21 | 36.58873 | 27.25059 | 38074 ft | 432 kts | 312° |
| 2026-05-04 09:21 | 36.62947 | 27.19565 | 38080 ft | 432 kts | 312° |
| 2026-05-04 09:22 | 36.66943 | 27.13981 | 38073 ft | 432 kts | 306° |
| 2026-05-04 09:22 | 36.69723 | 27.07363 | 38075 ft | 432 kts | 294° |
| 2026-05-04 09:23 | 36.72085 | 27.00528 | 38072 ft | 432 kts | 295° |
| 2026-05-04 09:23 | 36.74471 | 26.93650 | 38076 ft | 432 kts | 295° |
| 2026-05-04 09:25 | 36.83959 | 26.66190 | 38109 ft | 431 kts | 295° |
| 2026-05-04 09:26 | 36.86323 | 26.59305 | 38118 ft | 431 kts | 295° |
| 2026-05-04 09:26 | 36.88679 | 26.52414 | 38114 ft | 431 kts | 295° |
| 2026-05-04 09:27 | 36.91016 | 26.45571 | 38121 ft | 431 kts | 295° |
| 2026-05-04 09:27 | 36.93366 | 26.38654 | 38123 ft | 431 kts | 295° |
| 2026-05-04 09:28 | 36.95701 | 26.31757 | 38124 ft | 430 kts | 294° |
| 2026-05-04 09:28 | 36.96851 | 26.28354 | 38103 ft | 418 kts | 295° |
| 2026-05-04 09:28 | 36.97966 | 26.25057 | 38024 ft | 406 kts | 295° |
| 2026-05-04 09:29 | 36.99039 | 26.21887 | 37805 ft | 398 kts | 295° |
| 2026-05-04 09:29 | 37.00117 | 26.18714 | 37413 ft | 395 kts | 295° |
| 2026-05-04 09:29 | 37.01187 | 26.15565 | 37068 ft | 392 kts | 295° |
| 2026-05-04 09:29 | 37.02251 | 26.12427 | 36820 ft | 392 kts | 295° |
| 2026-05-04 09:30 | 37.03318 | 26.09282 | 36579 ft | 393 kts | 295° |
| 2026-05-04 09:30 | 37.04387 | 26.06128 | 36333 ft | 394 kts | 295° |
| 2026-05-04 09:30 | 37.05457 | 26.02968 | 36088 ft | 394 kts | 295° |
| 2026-05-04 09:30 | 37.06524 | 25.99806 | 35853 ft | 394 kts | 295° |
| 2026-05-04 09:31 | 37.07575 | 25.96687 | 35617 ft | 394 kts | 295° |
| 2026-05-04 09:31 | 37.08640 | 25.93525 | 35365 ft | 394 kts | 295° |
| 2026-05-04 09:31 | 37.09704 | 25.90368 | 35128 ft | 393 kts | 295° |
| 2026-05-04 09:31 | 37.10764 | 25.87217 | 34900 ft | 392 kts | 295° |
| 2026-05-04 09:32 | 37.11821 | 25.84070 | 34667 ft | 392 kts | 295° |
| 2026-05-04 09:32 | 37.12876 | 25.80922 | 34438 ft | 392 kts | 295° |
| 2026-05-04 09:34 | 37.20254 | 25.58853 | 32618 ft | 392 kts | 295° |
| 2026-05-04 09:34 | 37.21303 | 25.55697 | 32358 ft | 392 kts | 295° |
| 2026-05-04 09:34 | 37.22353 | 25.52534 | 32148 ft | 393 kts | 295° |
| 2026-05-04 09:34 | 37.23399 | 25.49368 | 32137 ft | 393 kts | 295° |
| 2026-05-04 09:35 | 37.25438 | 25.43039 | 32143 ft | 394 kts | 294° |
| 2026-05-04 09:35 | 37.27468 | 25.36649 | 32144 ft | 394 kts | 294° |
| 2026-05-04 09:37 | 37.34426 | 25.10741 | 32166 ft | 391 kts | 292° |
| 2026-05-04 09:38 | 37.36158 | 25.04271 | 32165 ft | 391 kts | 292° |
| 2026-05-04 09:38 | 37.37027 | 25.01024 | 32001 ft | 398 kts | 292° |
| 2026-05-04 09:38 | 37.37921 | 24.97700 | 30973 ft | 413 kts | 292° |
| 2026-05-04 09:39 | 37.38846 | 24.94251 | 29856 ft | 420 kts | 292° |
| 2026-05-04 09:39 | 37.39782 | 24.90737 | 28606 ft | 427 kts | 292° |
| 2026-05-04 09:39 | 37.40730 | 24.87156 | 27380 ft | 436 kts | 291° |
| 2026-05-04 09:39 | 37.41696 | 24.83498 | 26183 ft | 445 kts | 290° |
| 2026-05-04 09:40 | 37.42678 | 24.79765 | 25022 ft | 455 kts | 290° |
| 2026-05-04 09:40 | 37.43678 | 24.75962 | 23869 ft | 458 kts | 290° |
| 2026-05-04 09:40 | 37.44676 | 24.72164 | 22556 ft | 456 kts | 290° |
| 2026-05-04 09:40 | 37.45655 | 24.68436 | 21313 ft | 453 kts | 289° |
| 2026-05-04 09:41 | 37.46634 | 24.64711 | 20304 ft | 445 kts | 290° |
| 2026-05-04 09:42 | 37.53071 | 24.40138 | 16427 ft | 414 kts | 290° |
| 2026-05-04 09:43 | 37.53946 | 24.36752 | 15977 ft | 409 kts | 291° |
| 2026-05-04 09:43 | 37.54861 | 24.33373 | 14898 ft | 406 kts | 292° |
| 2026-05-04 09:43 | 37.55804 | 24.30046 | 14059 ft | 400 kts | 292° |
| 2026-05-04 09:43 | 37.56750 | 24.26776 | 13401 ft | 391 kts | 292° |
| 2026-05-04 09:44 | 37.57669 | 24.23649 | 13169 ft | 371 kts | 294° |
| 2026-05-04 09:44 | 37.58761 | 24.20773 | 12703 ft | 357 kts | 300° |
| 2026-05-04 09:44 | 37.59892 | 24.18050 | 12315 ft | 344 kts | 300° |
| 2026-05-04 09:46 | 37.67665 | 24.01445 | 9801 ft | 301 kts | 304° |
| 2026-05-04 09:46 | 37.69031 | 23.98553 | 9268 ft | 276 kts | 303° |
| 2026-05-04 09:46 | 37.69986 | 23.96523 | 8876 ft | 266 kts | 304° |
| 2026-05-04 09:47 | 37.70935 | 23.94515 | 8439 ft | 267 kts | 304° |
| 2026-05-04 09:47 | 37.71883 | 23.92512 | 7988 ft | 261 kts | 304° |
| 2026-05-04 09:49 | 37.78250 | 23.80291 | 4447 ft | 222 kts | 339° |
| 2026-05-04 09:49 | 37.79239 | 23.80076 | 4170 ft | 216 kts | 2° |
| 2026-05-04 09:49 | 37.80960 | 23.81088 | 3681 ft | 206 kts | 39° |
| 2026-05-04 09:51 | 37.86798 | 23.86809 | 1704 ft | 150 kts | 31° |
| 2026-05-04 09:51 | 37.87627 | 23.87585 | 1489 ft | 145 kts | 33° |
| 2026-05-04 09:51 | 37.88405 | 23.88354 | 1282 ft | 138 kts | 35° |
| 2026-05-04 09:51 | 37.89174 | 23.89071 | 1078 ft | 138 kts | 33° |
| 2026-05-04 09:52 | 37.90194 | 23.90027 | 858 ft | 133 kts | 34° |
| 2026-05-04 09:52 | 37.90697 | 23.90514 | 761 ft | 135 kts | 35° |
| 2026-05-04 09:52 | 37.91446 | 23.91236 | 569 ft | 133 kts | 36° |
| 2026-05-04 09:52 | 37.92174 | 23.91918 | 386 ft | 129 kts | 36° |
| 2026-05-04 09:53 | 37.92854 | 23.92562 | 298 ft | 108 kts | 37° |
| 2026-05-04 09:53 | 37.93326 | 23.93011 | 293 ft | 61 kts | 37° |
| 2026-05-04 09:53 | 37.93530 | 23.93214 | 291 ft | 27 kts | 47° |
| 2026-05-04 09:53 | 37.93611 | 23.93397 | 294 ft | 15 kts | 67° |
| 2026-05-04 09:54 | 37.93628 | 23.93475 | 300 ft | 7 kts | 100° |
| 2026-05-04 09:54 | 37.93589 | 23.93516 | 302 ft | 10 kts | 166° |
| 2026-05-04 09:54 | 37.93518 | 23.93475 | 300 ft | 13 kts | 225° |
| 2026-05-04 09:54 | 37.93440 | 23.93421 | 299 ft | 13 kts | 161° |
| 2026-05-04 09:55 | 37.93397 | 23.93498 | 300 ft | 12 kts | 119° |
| 2026-05-04 09:55 | 37.93350 | 23.93585 | 301 ft | 13 kts | 132° |
| 2026-05-04 09:55 | 37.93284 | 23.93683 | 303 ft | 16 kts | 126° |
| 2026-05-04 09:55 | 37.93198 | 23.93834 | 301 ft | 25 kts | 125° |
| 2026-05-04 09:56 | 37.93098 | 23.93995 | 301 ft | 15 kts | 134° |
| 2026-05-04 09:56 | 37.93001 | 23.93964 | 304 ft | 17 kts | 217° |
| 2026-05-04 09:56 | 37.92897 | 23.93864 | 303 ft | 19 kts | 216° |
| 2026-05-04 09:56 | 37.92807 | 23.93874 | 301 ft | 16 kts | 130° |
| 2026-05-04 09:57 | 37.92733 | 23.93996 | 302 ft | 19 kts | 126° |
| 2026-05-04 09:57 | 37.92688 | 23.94082 | 303 ft | 6 kts | 92° |
| 2026-05-04 09:57 | 37.92717 | 23.94115 | 302 ft | 5 kts | 37° |
| 2026-05-04 09:57 | 37.92741 | 23.94139 | 302 ft | 2 kts | 37° |
| 2026-05-04 09:58 | 37.92743 | 23.94140 | 302 ft | 0 kts | 37° |